createdAt,value
2018-03-27T00:00:31.596Z,96.17
2018-03-27T00:01:31.563Z,96.17
2018-03-27T00:02:31.549Z,95.98
2018-03-27T00:03:31.541Z,95.69
2018-03-27T00:04:31.272Z,96.12
2018-03-27T00:05:31.513Z,96.08
2018-03-27T00:06:31.500Z,95.93
2018-03-27T00:07:31.504Z,95.93
2018-03-27T00:08:31.224Z,95.55
2018-03-27T00:09:31.465Z,94.89
2018-03-27T00:10:31.202Z,95.07
2018-03-27T00:11:31.447Z,95.17
2018-03-27T00:12:31.182Z,94.79
2018-03-27T00:13:31.419Z,95.36
2018-03-27T00:14:31.416Z,95.12
2018-03-27T00:15:31.407Z,95.22
2018-03-27T00:16:31.461Z,95.88
2018-03-27T00:17:31.371Z,95.84
2018-03-27T00:18:31.361Z,95.5
2018-03-27T00:19:31.349Z,95.69
2018-03-27T00:20:31.335Z,95.88
2018-03-27T00:21:31.322Z,95.79
2018-03-27T00:22:31.318Z,95.88
2018-03-27T00:23:31.302Z,95.88
2018-03-27T00:24:31.292Z,95.88
2018-03-27T00:25:31.276Z,95.98
2018-03-27T00:26:31.262Z,96.17
2018-03-27T00:27:31.251Z,96.36
2018-03-27T00:28:31.250Z,96.36
2018-03-27T00:29:30.979Z,96.36
2018-03-27T00:30:31.216Z,96.08
2018-03-27T00:31:31.262Z,96.17
2018-03-27T00:32:31.192Z,95.6
2018-03-27T00:33:31.194Z,96.26
2018-03-27T00:34:31.171Z,95.98
2018-03-27T00:35:31.156Z,95.69
2018-03-27T00:36:30.893Z,96.17
2018-03-27T00:37:31.135Z,96.17
2018-03-27T00:38:31.120Z,95.88
2018-03-27T00:39:31.108Z,95.98
2018-03-27T00:40:30.845Z,96.26
2018-03-27T00:41:31.086Z,96.08
2018-03-27T00:42:31.078Z,95.69
2018-03-27T00:43:31.066Z,95.98
2018-03-27T00:44:31.054Z,95.79
2018-03-27T00:45:31.043Z,95.46
2018-03-27T00:46:31.038Z,96.12
2018-03-27T00:47:31.018Z,95.36
2018-03-27T00:48:31.000Z,95.55
2018-03-27T00:49:30.736Z,95.27
2018-03-27T00:50:30.726Z,95.46
2018-03-27T00:51:30.713Z,95.27
2018-03-27T00:52:30.953Z,94.79
2018-03-27T00:53:30.941Z,95.46
2018-03-27T00:54:30.932Z,94.98
2018-03-27T00:55:30.925Z,95.07
2018-03-27T00:56:30.906Z,95.17
2018-03-27T00:57:30.894Z,95.27
2018-03-27T00:58:30.637Z,94.6
2018-03-27T00:59:30.879Z,94.7
2018-03-27T01:00:30.866Z,94.51
2018-03-27T01:01:30.849Z,94.7
2018-03-27T01:02:30.845Z,94.42
2018-03-27T01:03:30.824Z,94.51
2018-03-27T01:04:30.815Z,94.7
2018-03-27T01:05:30.802Z,95.46
2018-03-27T01:06:30.795Z,94.32
2018-03-27T01:07:30.780Z,95.17
2018-03-27T01:08:30.514Z,94.89
2018-03-27T01:09:30.755Z,94.42
2018-03-27T01:10:30.741Z,93.84
2018-03-27T01:11:30.730Z,94.51
2018-03-27T01:12:30.466Z,94.42
2018-03-27T01:13:30.710Z,94.6
2018-03-27T01:14:30.700Z,94.6
2018-03-27T01:15:30.683Z,94.13
2018-03-27T01:16:30.675Z,93.94
2018-03-27T01:17:30.408Z,94.42
2018-03-27T01:18:30.648Z,94.03
2018-03-27T01:19:30.636Z,94.32
2018-03-27T01:20:30.626Z,94.03
2018-03-27T01:21:30.613Z,93.75
2018-03-27T01:22:30.602Z,93.65
2018-03-27T01:23:30.593Z,94.32
2018-03-27T01:24:30.326Z,94.13
2018-03-27T01:25:30.571Z,94.03
2018-03-27T01:26:30.560Z,94.23
2018-03-27T01:27:30.291Z,94.23
2018-03-27T01:28:30.532Z,93.94
2018-03-27T01:29:30.527Z,93.84
2018-03-27T01:30:30.519Z,94.42
2018-03-27T01:31:30.503Z,94.42
2018-03-27T01:32:30.487Z,94.6
2018-03-27T01:33:30.475Z,94.42
2018-03-27T01:34:30.209Z,94.51
2018-03-27T01:35:30.453Z,94.42
2018-03-27T01:36:30.438Z,94.42
2018-03-27T01:37:30.430Z,93.56
2018-03-27T01:38:30.162Z,94.03
2018-03-27T01:39:30.406Z,94.42
2018-03-27T01:40:30.409Z,94.13
2018-03-27T01:41:30.392Z,93.94
2018-03-27T01:42:30.378Z,94.03
2018-03-27T01:43:30.362Z,94.32
2018-03-27T01:44:30.368Z,93.94
2018-03-27T01:45:30.342Z,94.03
2018-03-27T01:46:30.322Z,93.75
2018-03-27T01:47:30.315Z,94.79
2018-03-27T01:48:30.303Z,94.42
2018-03-27T01:49:30.038Z,94.42
2018-03-27T01:50:30.309Z,94.7
2018-03-27T01:51:30.264Z,94.32
2018-03-27T01:52:29.998Z,94.32
2018-03-27T01:53:29.992Z,95.07
2018-03-27T01:54:30.245Z,95.07
2018-03-27T01:55:29.965Z,95.27
2018-03-27T01:56:30.218Z,94.98
2018-03-27T01:57:30.242Z,94.79
2018-03-27T01:58:30.187Z,95.07
2018-03-27T01:59:30.173Z,95.07
2018-03-27T02:00:30.171Z,95.17
2018-03-27T02:01:30.177Z,94.98
2018-03-27T02:02:30.140Z,95.17
2018-03-27T02:03:30.121Z,95.27
2018-03-27T02:04:30.109Z,94.42
2018-03-27T02:05:30.125Z,94.03
2018-03-27T02:06:30.096Z,94.51
2018-03-27T02:07:30.085Z,94.51
2018-03-27T02:08:29.810Z,94.32
2018-03-27T02:09:30.051Z,95.07
2018-03-27T02:10:29.786Z,94.98
2018-03-27T02:11:29.774Z,94.6
2018-03-27T02:12:30.016Z,94.32
2018-03-27T02:13:30.009Z,94.7
2018-03-27T02:14:29.995Z,94.42
2018-03-27T02:15:30.001Z,94.7
2018-03-27T02:16:29.972Z,94.32
2018-03-27T02:17:29.957Z,94.42
2018-03-27T02:18:29.948Z,94.7
2018-03-27T02:19:29.983Z,95.17
2018-03-27T02:20:29.984Z,94.93
2018-03-27T02:21:29.914Z,94.89
2018-03-27T02:22:29.903Z,94.79
2018-03-27T02:23:29.889Z,94.7
2018-03-27T02:24:29.893Z,95.17
2018-03-27T02:25:29.874Z,95.07
2018-03-27T02:26:29.858Z,95.17
2018-03-27T02:27:29.842Z,94.32
2018-03-27T02:28:29.574Z,94.51
2018-03-27T02:29:29.831Z,94.6
2018-03-27T02:30:29.804Z,93.84
2018-03-27T02:31:29.812Z,93.56
2018-03-27T02:32:29.786Z,93.84
2018-03-27T02:33:29.772Z,94.03
2018-03-27T02:34:29.507Z,93.46
2018-03-27T02:35:29.747Z,93.37
2018-03-27T02:36:29.481Z,92.71
2018-03-27T02:37:29.726Z,93.18
2018-03-27T02:38:29.713Z,93.27
2018-03-27T02:39:29.446Z,93.65
2018-03-27T02:40:29.434Z,93.46
2018-03-27T02:41:29.679Z,93.56
2018-03-27T02:42:29.673Z,92.8
2018-03-27T02:43:29.652Z,92.8
2018-03-27T02:44:29.644Z,93.08
2018-03-27T02:45:29.629Z,93.46
2018-03-27T02:46:29.619Z,93.18
2018-03-27T02:47:29.608Z,93.46
2018-03-27T02:48:29.605Z,93.56
2018-03-27T02:49:29.590Z,93.46
2018-03-27T02:50:29.572Z,92.71
2018-03-27T02:51:29.309Z,93.46
2018-03-27T02:52:29.547Z,93.46
2018-03-27T02:53:29.287Z,93.27
2018-03-27T02:54:29.528Z,93.46
2018-03-27T02:55:29.519Z,93.27
2018-03-27T02:56:29.503Z,93.65
2018-03-27T02:57:29.490Z,93.37
2018-03-27T02:58:29.478Z,93.27
2018-03-27T02:59:29.217Z,93.46
2018-03-27T03:00:29.206Z,92.9
2018-03-27T03:01:29.467Z,93.27
2018-03-27T03:02:29.439Z,92.9
2018-03-27T03:03:29.426Z,92.8
2018-03-27T03:04:29.153Z,93.46
2018-03-27T03:05:29.397Z,93.37
2018-03-27T03:06:29.390Z,93.46
2018-03-27T03:07:29.386Z,93.56
2018-03-27T03:08:29.112Z,93.56
2018-03-27T03:09:29.353Z,93.27
2018-03-27T03:10:29.336Z,93.37
2018-03-27T03:11:29.324Z,93.37
2018-03-27T03:12:29.322Z,93.46
2018-03-27T03:13:29.048Z,94.03
2018-03-27T03:14:29.035Z,93.84
2018-03-27T03:15:29.278Z,93.8
2018-03-27T03:16:29.265Z,93.84
2018-03-27T03:17:29.253Z,94.03
2018-03-27T03:18:29.244Z,93.65
2018-03-27T03:19:29.229Z,93.75
2018-03-27T03:20:29.277Z,94.03
2018-03-27T03:21:29.206Z,94.23
2018-03-27T03:22:29.192Z,93.65
2018-03-27T03:23:29.182Z,93.75
2018-03-27T03:24:29.179Z,93.75
2018-03-27T03:25:28.904Z,93.84
2018-03-27T03:26:29.147Z,93.37
2018-03-27T03:27:29.138Z,92.9
2018-03-27T03:28:29.124Z,93.18
2018-03-27T03:29:28.859Z,92.9
2018-03-27T03:30:29.111Z,93.18
2018-03-27T03:31:29.089Z,93.08
2018-03-27T03:32:29.076Z,92.52
2018-03-27T03:33:29.063Z,92.71
2018-03-27T03:34:28.799Z,92.71
2018-03-27T03:35:29.041Z,92.71
2018-03-27T03:36:29.027Z,92.71
2018-03-27T03:37:29.016Z,92.99
2018-03-27T03:38:29.003Z,92.9
2018-03-27T03:39:28.993Z,92.94
2018-03-27T03:40:28.982Z,93.27
2018-03-27T03:41:28.974Z,93.18
2018-03-27T03:42:28.710Z,93.23
2018-03-27T03:43:28.966Z,93.13
2018-03-27T03:44:28.948Z,93.04
2018-03-27T03:45:28.923Z,93.04
2018-03-27T03:46:28.910Z,93.51
2018-03-27T03:47:28.897Z,93.32
2018-03-27T03:48:28.886Z,92.94
2018-03-27T03:49:28.623Z,93.51
2018-03-27T03:50:28.862Z,93.32
2018-03-27T03:51:28.850Z,93.99
2018-03-27T03:52:28.841Z,93.8
2018-03-27T03:53:28.829Z,93.99
2018-03-27T03:54:28.563Z,93.7
2018-03-27T03:55:28.809Z,93.8
2018-03-27T03:56:28.791Z,93.8
2018-03-27T03:57:28.780Z,93.99
2018-03-27T03:58:28.770Z,93.99
2018-03-27T03:59:28.758Z,94.18
2018-03-27T04:00:28.876Z,94.37
2018-03-27T04:01:28.732Z,94.08
2018-03-27T04:02:28.720Z,95.22
2018-03-27T04:03:28.468Z,95.12
2018-03-27T04:04:28.443Z,95.03
2018-03-27T04:05:28.684Z,94.74
2018-03-27T04:06:28.419Z,94.93
2018-03-27T04:07:28.660Z,94.93
2018-03-27T04:08:28.648Z,95.41
2018-03-27T04:09:28.637Z,95.88
2018-03-27T04:10:28.624Z,95.79
2018-03-27T04:11:28.359Z,95.88
2018-03-27T04:12:28.600Z,95.41
2018-03-27T04:13:28.592Z,95.88
2018-03-27T04:14:28.578Z,95.79
2018-03-27T04:15:28.310Z,95.65
2018-03-27T04:16:28.553Z,95.69
2018-03-27T04:17:28.546Z,95.88
2018-03-27T04:18:28.526Z,96.03
2018-03-27T04:19:28.519Z,95.98
2018-03-27T04:20:28.508Z,95.5
2018-03-27T04:21:28.491Z,95.79
2018-03-27T04:22:28.229Z,95.88
2018-03-27T04:23:28.467Z,95.79
2018-03-27T04:24:28.457Z,95.79
2018-03-27T04:25:28.449Z,96.08
2018-03-27T04:26:28.430Z,95.22
2018-03-27T04:27:28.417Z,94.84
2018-03-27T04:28:28.411Z,94.93
2018-03-27T04:29:28.395Z,95.22
2018-03-27T04:30:28.381Z,94.93
2018-03-27T04:31:28.374Z,95.22
2018-03-27T04:32:28.354Z,95.31
2018-03-27T04:33:28.343Z,95.03
2018-03-27T04:34:28.331Z,95.03
2018-03-27T04:35:28.318Z,95.31
2018-03-27T04:36:28.309Z,95.03
2018-03-27T04:37:28.309Z,94.46
2018-03-27T04:38:28.287Z,94.46
2018-03-27T04:39:28.028Z,94.27
2018-03-27T04:40:28.264Z,93.8
2018-03-27T04:41:28.250Z,93.8
2018-03-27T04:42:28.234Z,93.51
2018-03-27T04:43:27.970Z,94.32
2018-03-27T04:44:28.212Z,94.08
2018-03-27T04:45:28.198Z,94.03
2018-03-27T04:46:28.185Z,94.03
2018-03-27T04:47:28.174Z,93.84
2018-03-27T04:48:28.162Z,93.18
2018-03-27T04:49:27.896Z,93.46
2018-03-27T04:50:28.138Z,93.46
2018-03-27T04:51:28.130Z,93.46
2018-03-27T04:52:28.186Z,93.37
2018-03-27T04:53:28.103Z,93.46
2018-03-27T04:54:27.845Z,92.99
2018-03-27T04:55:28.079Z,92.9
2018-03-27T04:56:28.072Z,93.08
2018-03-27T04:57:28.054Z,92.71
2018-03-27T04:58:28.044Z,92.61
2018-03-27T04:59:27.779Z,92.61
2018-03-27T05:00:27.765Z,92.8
2018-03-27T05:01:28.008Z,92.61
2018-03-27T05:02:28.124Z,92.99
2018-03-27T05:03:27.732Z,93.08
2018-03-27T05:04:27.975Z,92.52
2018-03-27T05:05:27.706Z,92.71
2018-03-27T05:06:27.946Z,93.08
2018-03-27T05:07:27.935Z,93.27
2018-03-27T05:08:27.928Z,92.71
2018-03-27T05:09:27.920Z,93.08
2018-03-27T05:10:27.904Z,92.71
2018-03-27T05:11:27.905Z,92.71
2018-03-27T05:12:27.623Z,92.71
2018-03-27T05:13:27.867Z,93.08
2018-03-27T05:14:27.888Z,92.71
2018-03-27T05:15:27.840Z,92.99
2018-03-27T05:16:27.828Z,93.08
2018-03-27T05:17:27.817Z,93.32
2018-03-27T05:18:27.810Z,93.8
2018-03-27T05:19:27.540Z,93.61
2018-03-27T05:20:27.528Z,93.7
2018-03-27T05:21:27.769Z,94.18
2018-03-27T05:22:27.510Z,94.37
2018-03-27T05:23:27.750Z,94.46
2018-03-27T05:24:27.734Z,95.22
2018-03-27T05:25:27.722Z,95.12
2018-03-27T05:26:27.755Z,95.03
2018-03-27T05:27:27.698Z,94.84
2018-03-27T05:28:27.689Z,95.31
2018-03-27T05:29:27.680Z,95.03
2018-03-27T05:30:27.664Z,95.22
2018-03-27T05:31:27.649Z,95.12
2018-03-27T05:32:27.636Z,94.74
2018-03-27T05:33:27.640Z,94.56
2018-03-27T05:34:27.622Z,94.51
2018-03-27T05:35:27.602Z,94.42
2018-03-27T05:36:27.603Z,94.51
2018-03-27T05:37:27.577Z,93.94
2018-03-27T05:38:27.566Z,93.84
2018-03-27T05:39:27.572Z,93.84
2018-03-27T05:40:27.289Z,93.27
2018-03-27T05:41:27.539Z,92.99
2018-03-27T05:42:27.519Z,92.9
2018-03-27T05:43:27.512Z,93.08
2018-03-27T05:44:27.515Z,93.37
2018-03-27T05:45:27.507Z,93.84
2018-03-27T05:46:27.220Z,93.75
2018-03-27T05:47:27.461Z,94.42
2018-03-27T05:48:27.451Z,94.03
2018-03-27T05:49:27.187Z,93.84
2018-03-27T05:50:27.431Z,93.37
2018-03-27T05:51:27.414Z,92.9
2018-03-27T05:52:27.402Z,93.18
2018-03-27T05:53:27.394Z,93.18
2018-03-27T05:54:27.125Z,93.94
2018-03-27T05:55:27.367Z,93.37
2018-03-27T05:56:27.357Z,94.03
2018-03-27T05:57:27.345Z,94.03
2018-03-27T05:58:27.334Z,93.27
2018-03-27T05:59:27.068Z,93.46
2018-03-27T06:00:27.309Z,93.27
2018-03-27T06:01:27.296Z,93.37
2018-03-27T06:02:27.032Z,92.94
2018-03-27T06:03:27.273Z,93.32
2018-03-27T06:04:27.018Z,92.18
2018-03-27T06:05:26.998Z,92.18
2018-03-27T06:06:26.986Z,91.8
2018-03-27T06:07:27.230Z,91.75
2018-03-27T06:08:27.235Z,91.28
2018-03-27T06:09:26.954Z,90.8
2018-03-27T06:10:27.260Z,90.61
2018-03-27T06:11:26.931Z,90.23
2018-03-27T06:12:27.182Z,90.05
2018-03-27T06:13:27.180Z,89.95
2018-03-27T06:14:26.898Z,89.95
2018-03-27T06:15:27.144Z,89
2018-03-27T06:16:26.878Z,88.71
2018-03-27T06:17:27.121Z,88.81
2018-03-27T06:18:27.108Z,88.62
2018-03-27T06:19:26.844Z,88.28
2018-03-27T06:20:27.087Z,88.43
2018-03-27T06:21:27.078Z,88.34
2018-03-27T06:22:27.065Z,88.15
2018-03-27T06:23:27.084Z,88.15
2018-03-27T06:24:26.832Z,88.71
2018-03-27T06:25:27.044Z,88.15
2018-03-27T06:26:26.769Z,88.53
2018-03-27T06:27:26.808Z,88.47
2018-03-27T06:28:27.005Z,88.57
2018-03-27T06:29:27.004Z,88.09
2018-03-27T06:30:26.980Z,88.19
2018-03-27T06:31:26.974Z,87.81
2018-03-27T06:32:26.959Z,87.43
2018-03-27T06:33:26.948Z,87.34
2018-03-27T06:34:26.939Z,86.95
2018-03-27T06:35:26.675Z,86.57
2018-03-27T06:36:26.933Z,86.57
2018-03-27T06:37:26.910Z,86.19
2018-03-27T06:38:26.898Z,85.91
2018-03-27T06:39:26.632Z,86.33
2018-03-27T06:40:26.876Z,86.14
2018-03-27T06:41:26.868Z,85.38
2018-03-27T06:42:26.858Z,85.28
2018-03-27T06:43:26.846Z,85.57
2018-03-27T06:44:26.837Z,85.28
2018-03-27T06:45:26.835Z,85.47
2018-03-27T06:46:26.837Z,85.1
2018-03-27T06:47:26.815Z,85.19
2018-03-27T06:48:26.796Z,84.81
2018-03-27T06:49:26.785Z,84.43
2018-03-27T06:50:26.782Z,84
2018-03-27T06:51:26.770Z,83.23
2018-03-27T06:52:26.757Z,83.42
2018-03-27T06:53:26.748Z,83.23
2018-03-27T06:54:26.488Z,82.86
2018-03-27T06:55:26.482Z,83.23
2018-03-27T06:56:26.735Z,82.57
2018-03-27T06:57:26.462Z,82.57
2018-03-27T06:58:26.702Z,82.86
2018-03-27T06:59:26.698Z,82.28
2018-03-27T07:00:26.690Z,81.9
2018-03-27T07:01:26.421Z,81.66
2018-03-27T07:02:26.695Z,81.76
2018-03-27T07:03:26.690Z,82.14
2018-03-27T07:04:26.657Z,81.66
2018-03-27T07:05:26.462Z,81.28
2018-03-27T07:06:26.678Z,80.9
2018-03-27T07:07:26.624Z,80.71
2018-03-27T07:08:26.650Z,80.8
2018-03-27T07:09:26.627Z,80.9
2018-03-27T07:10:26.600Z,80.33
2018-03-27T07:11:26.632Z,80.23
2018-03-27T07:12:26.580Z,80.33
2018-03-27T07:13:26.613Z,79.94
2018-03-27T07:14:26.582Z,79.28
2018-03-27T07:15:26.302Z,79.47
2018-03-27T07:16:26.564Z,79.47
2018-03-27T07:17:26.286Z,80.23
2018-03-27T07:18:26.575Z,79.57
2018-03-27T07:19:26.565Z,79.28
2018-03-27T07:20:26.545Z,79.51
2018-03-27T07:21:26.520Z,79.22
2018-03-27T07:22:26.532Z,79.13
2018-03-27T07:23:26.498Z,78.65
2018-03-27T07:24:26.496Z,78.46
2018-03-27T07:25:26.226Z,78.37
2018-03-27T07:26:26.472Z,78.46
2018-03-27T07:27:26.469Z,78.37
2018-03-27T07:28:26.456Z,78.46
2018-03-27T07:29:26.455Z,78.46
2018-03-27T07:30:26.451Z,78.27
2018-03-27T07:31:26.451Z,78.04
2018-03-27T07:32:26.478Z,78.42
2018-03-27T07:33:26.439Z,78.61
2018-03-27T07:34:26.422Z,78.99
2018-03-27T07:35:26.420Z,79.19
2018-03-27T07:36:26.150Z,79.13
2018-03-27T07:37:26.407Z,78.56
2018-03-27T07:38:26.391Z,78.46
2018-03-27T07:39:26.386Z,78.37
2018-03-27T07:40:26.437Z,78.22
2018-03-27T07:41:26.385Z,77.55
2018-03-27T07:42:26.374Z,77.4
2018-03-27T07:43:26.373Z,75.96
2018-03-27T07:44:26.365Z,75.34
2018-03-27T07:45:26.361Z,74.67
2018-03-27T07:46:26.355Z,73.43
2018-03-27T07:47:26.363Z,71.94
2018-03-27T07:48:26.351Z,70.16
2018-03-27T07:49:26.353Z,69.59
2018-03-27T07:50:26.354Z,69.49
2018-03-27T07:51:26.356Z,69.15
2018-03-27T07:52:26.370Z,69.05
2018-03-27T07:53:26.367Z,68.32
2018-03-27T07:54:26.375Z,67.65
2018-03-27T07:55:26.340Z,66.89
2018-03-27T07:56:26.340Z,66.25
2018-03-27T07:57:26.338Z,65.48
2018-03-27T07:58:26.338Z,64.15
2018-03-27T07:59:26.340Z,63.48
2018-03-27T08:00:26.082Z,63.19
2018-03-27T08:01:26.337Z,62.74
2018-03-27T08:02:26.081Z,62.71
2018-03-27T08:03:26.386Z,62.84
2018-03-27T08:04:26.351Z,62.52
2018-03-27T08:05:26.330Z,61.19
2018-03-27T08:06:26.330Z,61.09
2018-03-27T08:07:26.336Z,60.8
2018-03-27T08:08:26.330Z,60.71
2018-03-27T08:09:26.084Z,60.8
2018-03-27T08:10:26.068Z,60.58
2018-03-27T08:11:26.332Z,61.06
2018-03-27T08:12:26.355Z,61.06
2018-03-27T08:13:26.329Z,61.89
2018-03-27T08:14:26.320Z,61.69
2018-03-27T08:15:26.310Z,61.79
2018-03-27T08:16:26.364Z,62.27
2018-03-27T08:17:26.321Z,62.37
2018-03-27T08:18:26.320Z,62.27
2018-03-27T08:19:26.046Z,61.98
2018-03-27T08:20:26.292Z,62.18
2018-03-27T08:21:26.289Z,61.22
2018-03-27T08:22:26.289Z,61.13
2018-03-27T08:23:26.288Z,60.84
2018-03-27T08:24:26.409Z,60.84
2018-03-27T08:25:26.272Z,60.74
2018-03-27T08:26:26.270Z,60.64
2018-03-27T08:27:26.312Z,61.03
2018-03-27T08:28:26.282Z,60.84
2018-03-27T08:29:26.367Z,60.74
2018-03-27T08:30:25.999Z,60.46
2018-03-27T08:31:26.247Z,60.55
2018-03-27T08:32:26.242Z,60.27
2018-03-27T08:33:26.237Z,60.07
2018-03-27T08:34:26.278Z,59.5
2018-03-27T08:35:26.231Z,58.93
2018-03-27T08:36:26.508Z,59.15
2018-03-27T08:37:26.224Z,57.87
2018-03-27T08:38:26.010Z,58.16
2018-03-27T08:39:26.220Z,58.99
2018-03-27T08:40:26.218Z,59.85
2018-03-27T08:41:26.226Z,60.81
2018-03-27T08:42:26.208Z,60.87
2018-03-27T08:43:26.308Z,61.07
2018-03-27T08:44:26.184Z,61.54
2018-03-27T08:45:26.182Z,62.08
2018-03-27T08:46:26.175Z,62.75
2018-03-27T08:47:26.179Z,62.65
2018-03-27T08:48:26.161Z,63.23
2018-03-27T08:49:25.902Z,63.8
2018-03-27T08:50:26.151Z,63.32
2018-03-27T08:51:26.155Z,63.6
2018-03-27T08:52:26.154Z,62.84
2018-03-27T08:53:25.887Z,63.04
2018-03-27T08:54:26.180Z,63.51
2018-03-27T08:55:26.124Z,63.7
2018-03-27T08:56:26.120Z,62.75
2018-03-27T08:57:26.110Z,62.56
2018-03-27T08:58:26.106Z,62.59
2018-03-27T08:59:25.847Z,62.59
2018-03-27T09:00:26.093Z,62.59
2018-03-27T09:01:26.086Z,62.78
2018-03-27T09:02:26.088Z,62.68
2018-03-27T09:03:26.084Z,62.49
2018-03-27T09:04:26.075Z,62.11
2018-03-27T09:05:26.087Z,61.73
2018-03-27T09:06:26.069Z,62.4
2018-03-27T09:07:26.058Z,62.59
2018-03-27T09:08:26.051Z,62.3
2018-03-27T09:09:26.049Z,62.59
2018-03-27T09:10:26.043Z,62.59
2018-03-27T09:11:26.038Z,62.4
2018-03-27T09:12:26.031Z,62.49
2018-03-27T09:13:25.768Z,62.59
2018-03-27T09:14:26.015Z,62.59
2018-03-27T09:15:26.010Z,62.59
2018-03-27T09:16:26.068Z,62.68
2018-03-27T09:17:26.018Z,62.65
2018-03-27T09:18:25.993Z,62.65
2018-03-27T09:19:25.736Z,62.49
2018-03-27T09:20:25.982Z,61.99
2018-03-27T09:21:25.978Z,61.7
2018-03-27T09:22:25.726Z,61.22
2018-03-27T09:23:26.031Z,61.7
2018-03-27T09:24:25.966Z,61.89
2018-03-27T09:25:25.973Z,61.99
2018-03-27T09:26:25.979Z,62.21
2018-03-27T09:27:25.948Z,61.73
2018-03-27T09:28:25.684Z,61.83
2018-03-27T09:29:25.937Z,61.44
2018-03-27T09:30:25.932Z,61.44
2018-03-27T09:31:25.955Z,60.58
2018-03-27T09:32:25.932Z,60.81
2018-03-27T09:33:25.903Z,60.61
2018-03-27T09:34:25.903Z,60.71
2018-03-27T09:35:25.891Z,59.95
2018-03-27T09:36:25.905Z,59.95
2018-03-27T09:37:25.887Z,59.09
2018-03-27T09:38:25.656Z,57.59
2018-03-27T09:39:25.877Z,57.11
2018-03-27T09:40:25.613Z,56.63
2018-03-27T09:41:25.904Z,55.87
2018-03-27T09:42:25.602Z,55.71
2018-03-27T09:43:25.900Z,54.75
2018-03-27T09:44:25.612Z,54.47
2018-03-27T09:45:25.886Z,54.11
2018-03-27T09:46:25.585Z,53.73
2018-03-27T09:47:25.833Z,53.34
2018-03-27T09:48:25.840Z,52.48
2018-03-27T09:49:25.825Z,52.29
2018-03-27T09:50:25.830Z,52.94
2018-03-27T09:51:25.581Z,53.41
2018-03-27T09:52:25.852Z,52.94
2018-03-27T09:53:26.242Z,53.06
2018-03-27T09:54:25.795Z,52.87
2018-03-27T09:55:25.796Z,52.48
2018-03-27T09:56:25.800Z,52.1
2018-03-27T09:57:25.799Z,51.43
2018-03-27T09:58:25.854Z,51.91
2018-03-27T09:59:25.521Z,51.43
2018-03-27T10:00:25.793Z,51.53
2018-03-27T10:01:25.519Z,51.81
2018-03-27T10:02:25.767Z,52.01
2018-03-27T10:03:25.768Z,51.72
2018-03-27T10:04:25.530Z,51.43
2018-03-27T10:05:25.756Z,51.89
2018-03-27T10:06:25.745Z,52.26
2018-03-27T10:07:25.741Z,53.32
2018-03-27T10:08:25.745Z,52.81
2018-03-27T10:09:25.770Z,53.39
2018-03-27T10:10:25.725Z,53.77
2018-03-27T10:11:25.724Z,53.67
2018-03-27T10:12:25.719Z,53.77
2018-03-27T10:13:25.480Z,53.86
2018-03-27T10:14:25.705Z,54.06
2018-03-27T10:15:25.702Z,54.06
2018-03-27T10:16:25.696Z,53.74
2018-03-27T10:17:25.688Z,53.74
2018-03-27T10:18:25.691Z,53.65
2018-03-27T10:19:25.697Z,54.03
2018-03-27T10:20:25.673Z,54.6
2018-03-27T10:21:25.416Z,54.7
2018-03-27T10:22:25.671Z,55.08
2018-03-27T10:23:25.411Z,54.6
2018-03-27T10:24:25.651Z,54.7
2018-03-27T10:25:25.392Z,53.93
2018-03-27T10:26:25.641Z,53.93
2018-03-27T10:27:25.693Z,54.06
2018-03-27T10:28:25.375Z,53.93
2018-03-27T10:29:25.633Z,53.96
2018-03-27T10:30:25.364Z,53.86
2018-03-27T10:31:25.612Z,54.25
2018-03-27T10:32:25.609Z,54.06
2018-03-27T10:33:25.621Z,54.15
2018-03-27T10:34:25.617Z,54.25
2018-03-27T10:35:25.630Z,54.06
2018-03-27T10:36:25.345Z,53.45
2018-03-27T10:37:25.576Z,53.39
2018-03-27T10:38:25.573Z,53.2
2018-03-27T10:39:25.311Z,54.22
2018-03-27T10:40:25.564Z,54.25
2018-03-27T10:41:25.551Z,53.49
2018-03-27T10:42:25.566Z,53.2
2018-03-27T10:43:25.560Z,53.2
2018-03-27T10:44:25.535Z,53.65
2018-03-27T10:45:25.608Z,54.15
2018-03-27T10:46:25.533Z,53.65
2018-03-27T10:47:25.522Z,53.93
2018-03-27T10:48:25.516Z,53.84
2018-03-27T10:49:25.516Z,53.96
2018-03-27T10:50:25.522Z,53.77
2018-03-27T10:51:25.541Z,53.58
2018-03-27T10:52:25.487Z,53.67
2018-03-27T10:53:25.499Z,53.29
2018-03-27T10:54:25.248Z,52.91
2018-03-27T10:55:25.225Z,52.34
2018-03-27T10:56:25.477Z,51.95
2018-03-27T10:57:25.210Z,52.17
2018-03-27T10:58:25.478Z,52.17
2018-03-27T10:59:25.451Z,52.26
2018-03-27T11:00:25.443Z,51.89
2018-03-27T11:01:25.440Z,51.31
2018-03-27T11:02:25.466Z,50.93
2018-03-27T11:03:25.180Z,50.64
2018-03-27T11:04:25.436Z,50.55
2018-03-27T11:05:25.418Z,51.03
2018-03-27T11:06:25.413Z,51.41
2018-03-27T11:07:25.407Z,51.12
2018-03-27T11:08:25.425Z,51.34
2018-03-27T11:09:25.402Z,51.05
2018-03-27T11:10:25.393Z,50.45
2018-03-27T11:11:25.407Z,50.48
2018-03-27T11:12:25.439Z,50.38
2018-03-27T11:13:25.124Z,50.57
2018-03-27T11:14:25.403Z,50.67
2018-03-27T11:15:25.384Z,50.76
2018-03-27T11:16:25.386Z,50.48
2018-03-27T11:17:25.367Z,50.19
2018-03-27T11:18:25.380Z,50.29
2018-03-27T11:19:25.361Z,50.09
2018-03-27T11:20:25.344Z,50
2018-03-27T11:21:25.361Z,49.55
2018-03-27T11:22:25.353Z,49.07
2018-03-27T11:23:25.411Z,48.78
2018-03-27T11:24:25.364Z,49.07
2018-03-27T11:25:25.439Z,48.49
2018-03-27T11:26:25.341Z,48.11
2018-03-27T11:27:25.084Z,48.02
2018-03-27T11:28:25.370Z,47.82
2018-03-27T11:29:25.318Z,47.75
2018-03-27T11:30:25.337Z,47.56
2018-03-27T11:31:25.299Z,47.94
2018-03-27T11:32:25.296Z,47.47
2018-03-27T11:33:25.292Z,47.37
2018-03-27T11:34:25.302Z,46.7
2018-03-27T11:35:25.282Z,46.72
2018-03-27T11:36:25.277Z,46.44
2018-03-27T11:37:25.284Z,46.44
2018-03-27T11:38:25.312Z,46.53
2018-03-27T11:39:25.018Z,46.72
2018-03-27T11:40:25.301Z,45.76
2018-03-27T11:41:25.281Z,45.57
2018-03-27T11:42:25.282Z,45.76
2018-03-27T11:43:25.273Z,46.05
2018-03-27T11:44:25.289Z,45.96
2018-03-27T11:45:25.331Z,45.76
2018-03-27T11:46:25.301Z,45.57
2018-03-27T11:47:25.313Z,45.38
2018-03-27T11:48:25.071Z,45.21
2018-03-27T11:49:25.272Z,45.31
2018-03-27T11:50:24.994Z,45.12
2018-03-27T11:51:24.997Z,44.64
2018-03-27T11:52:25.269Z,42.82
2018-03-27T11:53:25.276Z,41.67
2018-03-27T11:54:25.282Z,42.24
2018-03-27T11:55:25.292Z,42.22
2018-03-27T11:56:25.275Z,42.9
2018-03-27T11:57:25.217Z,42.9
2018-03-27T11:58:25.210Z,43.27
2018-03-27T11:59:25.207Z,43.35
2018-03-27T12:00:25.189Z,43.37
2018-03-27T12:01:25.476Z,43.56
2018-03-27T12:02:25.183Z,43.56
2018-03-27T12:03:25.189Z,42.41
2018-03-27T12:04:25.184Z,42.41
2018-03-27T12:05:25.185Z,42.49
2018-03-27T12:06:25.184Z,42.77
2018-03-27T12:07:24.917Z,43.16
2018-03-27T12:08:25.163Z,42.87
2018-03-27T12:09:24.920Z,42.4
2018-03-27T12:10:25.215Z,41.91
2018-03-27T12:11:25.149Z,42.4
2018-03-27T12:12:24.892Z,43.06
2018-03-27T12:13:24.890Z,43.06
2018-03-27T12:14:25.144Z,43.33
2018-03-27T12:15:25.158Z,43.33
2018-03-27T12:16:25.160Z,43.43
2018-03-27T12:17:25.129Z,43.43
2018-03-27T12:18:25.140Z,43.54
2018-03-27T12:19:25.128Z,42.97
2018-03-27T12:20:25.116Z,41.91
2018-03-27T12:21:25.132Z,41.82
2018-03-27T12:22:25.110Z,41.82
2018-03-27T12:23:25.117Z,41.99
2018-03-27T12:24:25.104Z,41.61
2018-03-27T12:25:25.103Z,41.8
2018-03-27T12:26:25.101Z,41.99
2018-03-27T12:27:25.090Z,42.66
2018-03-27T12:28:25.087Z,42.85
2018-03-27T12:29:25.102Z,42.94
2018-03-27T12:30:25.083Z,42.85
2018-03-27T12:31:25.076Z,42.66
2018-03-27T12:32:25.070Z,42.66
2018-03-27T12:33:24.813Z,42.3
2018-03-27T12:34:25.081Z,42.4
2018-03-27T12:35:25.065Z,42.4
2018-03-27T12:36:25.055Z,42.6
2018-03-27T12:37:25.072Z,41.74
2018-03-27T12:38:25.059Z,41.55
2018-03-27T12:39:25.071Z,41.46
2018-03-27T12:40:25.040Z,41.17
2018-03-27T12:41:25.036Z,41.07
2018-03-27T12:42:25.099Z,41.28
2018-03-27T12:43:25.047Z,41.09
2018-03-27T12:44:25.052Z,41.09
2018-03-27T12:45:25.030Z,41.09
2018-03-27T12:46:25.044Z,41
2018-03-27T12:47:25.034Z,40.81
2018-03-27T12:48:25.023Z,40.9
2018-03-27T12:49:24.756Z,40.9
2018-03-27T12:50:25.011Z,41.67
2018-03-27T12:51:25.018Z,42.03
2018-03-27T12:52:25.006Z,42.13
2018-03-27T12:53:25.011Z,42.41
2018-03-27T12:54:24.761Z,42.99
2018-03-27T12:55:25.028Z,42.99